createdAt,value
2018-01-29T00:00:41.363Z,1.66
2018-01-29T00:01:41.376Z,1.65
2018-01-29T00:02:41.378Z,1.66
2018-01-29T00:03:41.386Z,1.66
2018-01-29T00:04:41.395Z,1.69
2018-01-29T00:05:41.403Z,1.68
2018-01-29T00:06:41.407Z,1.66
2018-01-29T00:07:41.416Z,1.65
2018-01-29T00:08:41.424Z,1.70
2018-01-29T00:09:41.440Z,1.72
2018-01-29T00:10:41.439Z,1.66
2018-01-29T00:11:41.448Z,1.63
2018-01-29T00:12:41.459Z,1.72
2018-01-29T00:13:41.462Z,1.69
2018-01-29T00:14:41.469Z,1.68
2018-01-29T00:15:41.477Z,1.66
2018-01-29T00:16:41.485Z,1.66
2018-01-29T00:17:41.493Z,1.59
2018-01-29T00:18:41.498Z,1.68
2018-01-29T00:19:41.506Z,1.70
2018-01-29T00:20:41.513Z,1.65
2018-01-29T00:21:41.523Z,1.62
2018-01-29T00:22:41.532Z,1.58
2018-01-29T00:23:41.538Z,1.63
2018-01-29T00:24:41.543Z,1.60
2018-01-29T00:25:41.552Z,1.66
2018-01-29T00:26:41.559Z,1.59
2018-01-29T00:27:41.567Z,1.69
2018-01-29T00:28:41.576Z,1.60
2018-01-29T00:29:41.582Z,1.63
2018-01-29T00:30:41.590Z,1.69
2018-01-29T00:31:41.597Z,1.66
2018-01-29T00:32:41.606Z,1.63
2018-01-29T00:33:41.612Z,1.63
2018-01-29T00:34:41.618Z,1.63
2018-01-29T00:35:41.626Z,1.60
2018-01-29T00:36:41.636Z,1.63
2018-01-29T00:37:41.642Z,1.65
2018-01-29T00:38:41.651Z,1.62
2018-01-29T00:39:41.655Z,1.58
2018-01-29T00:40:41.662Z,1.59
2018-01-29T00:41:41.671Z,1.54
2018-01-29T00:42:41.679Z,1.52
2018-01-29T00:43:41.686Z,1.48
2018-01-29T00:44:41.693Z,1.51
2018-01-29T00:45:41.700Z,1.59
2018-01-29T00:46:41.708Z,1.60
2018-01-29T00:47:41.716Z,1.65
2018-01-29T00:48:41.721Z,1.48
2018-01-29T00:49:41.731Z,1.60
2018-01-29T00:50:41.737Z,1.59
2018-01-29T00:51:41.745Z,1.58
2018-01-29T00:52:41.752Z,1.50
2018-01-29T00:53:41.761Z,1.59
2018-01-29T00:54:41.768Z,1.60
2018-01-29T00:55:41.777Z,1.55
2018-01-29T00:56:41.784Z,1.68
2018-01-29T00:57:41.789Z,1.50
2018-01-29T00:58:41.797Z,1.55
2018-01-29T00:59:41.805Z,1.58
2018-01-29T01:00:41.810Z,1.51
2018-01-29T01:01:41.826Z,1.52
2018-01-29T01:02:41.825Z,1.51
2018-01-29T01:03:41.833Z,1.62
2018-01-29T01:04:41.842Z,1.59
2018-01-29T01:05:41.849Z,1.51
2018-01-29T01:06:41.858Z,1.65
2018-01-29T01:07:41.866Z,1.55
2018-01-29T01:08:41.871Z,1.55
2018-01-29T01:09:41.878Z,1.51
2018-01-29T01:10:41.886Z,1.48
2018-01-29T01:11:41.894Z,1.52
2018-01-29T01:12:41.899Z,1.48
2018-01-29T01:13:41.907Z,1.51
2018-01-29T01:14:41.914Z,1.52
2018-01-29T01:15:41.922Z,1.55
2018-01-29T01:16:41.931Z,1.52
2018-01-29T01:17:41.937Z,1.50
2018-01-29T01:18:41.944Z,1.52
2018-01-29T01:19:41.953Z,1.45
2018-01-29T01:20:41.960Z,1.48
2018-01-29T01:21:41.967Z,1.51
2018-01-29T01:22:41.974Z,1.51
2018-01-29T01:23:41.988Z,1.45
2018-01-29T01:24:41.989Z,1.42
2018-01-29T01:25:41.996Z,1.48
2018-01-29T01:26:42.002Z,1.51
2018-01-29T01:27:42.012Z,1.48
2018-01-29T01:28:42.020Z,1.40
2018-01-29T01:29:42.025Z,1.50
2018-01-29T01:30:42.033Z,1.58
2018-01-29T01:31:42.040Z,1.48
2018-01-29T01:32:42.048Z,1.52
2018-01-29T01:33:42.054Z,1.51
2018-01-29T01:34:42.063Z,1.60
2018-01-29T01:35:42.070Z,1.40
2018-01-29T01:36:42.078Z,1.48
2018-01-29T01:37:42.144Z,1.42
2018-01-29T01:38:42.093Z,1.44
2018-01-29T01:39:42.099Z,1.40
2018-01-29T01:40:42.107Z,1.41
2018-01-29T01:41:42.115Z,1.32
2018-01-29T01:42:42.126Z,1.45
2018-01-29T01:43:42.130Z,1.45
2018-01-29T01:44:42.136Z,1.47
2018-01-29T01:45:42.143Z,1.37
2018-01-29T01:46:42.149Z,1.48
2018-01-29T01:47:42.158Z,1.45
2018-01-29T01:48:42.164Z,1.45
2018-01-29T01:49:42.173Z,1.50
2018-01-29T01:50:42.180Z,1.44
2018-01-29T01:51:42.186Z,1.50
2018-01-29T01:52:42.194Z,1.44
2018-01-29T01:53:42.202Z,1.34
2018-01-29T01:54:42.209Z,1.41
2018-01-29T01:55:42.215Z,1.45
2018-01-29T01:56:42.223Z,1.45
2018-01-29T01:57:42.230Z,1.34
2018-01-29T01:58:42.239Z,1.41
2018-01-29T01:59:42.252Z,1.41
2018-01-29T02:00:42.252Z,1.45
2018-01-29T02:01:42.259Z,1.52
2018-01-29T02:02:42.267Z,1.44
2018-01-29T02:03:42.273Z,1.42
2018-01-29T02:04:42.281Z,1.48
2018-01-29T02:05:42.292Z,1.41
2018-01-29T02:06:42.294Z,1.41
2018-01-29T02:07:42.301Z,1.47
2018-01-29T02:08:42.309Z,1.41
2018-01-29T02:09:42.317Z,1.51
2018-01-29T02:10:42.324Z,1.50
2018-01-29T02:11:42.332Z,1.41
2018-01-29T02:12:42.338Z,1.41
2018-01-29T02:13:42.346Z,1.40
2018-01-29T02:14:42.353Z,1.40
2018-01-29T02:15:42.368Z,1.37
2018-01-29T02:16:42.369Z,1.37
2018-01-29T02:17:42.374Z,1.44
2018-01-29T02:18:42.381Z,1.37
2018-01-29T02:19:42.388Z,1.42
2018-01-29T02:20:42.397Z,1.44
2018-01-29T02:21:42.407Z,1.40
2018-01-29T02:22:42.410Z,1.36
2018-01-29T02:23:42.417Z,1.34
2018-01-29T02:24:42.424Z,1.37
2018-01-29T02:25:42.438Z,1.44
2018-01-29T02:26:42.438Z,1.40
2018-01-29T02:27:42.447Z,1.33
2018-01-29T02:28:42.455Z,1.40
2018-01-29T02:29:42.461Z,1.41
2018-01-29T02:30:42.468Z,1.40
2018-01-29T02:31:42.476Z,1.33
2018-01-29T02:32:42.484Z,1.48
2018-01-29T02:33:42.489Z,1.40
2018-01-29T02:34:42.497Z,1.41
2018-01-29T02:35:42.503Z,1.40
2018-01-29T02:36:42.517Z,1.36
2018-01-29T02:37:42.520Z,1.37
2018-01-29T02:38:42.526Z,1.33
2018-01-29T02:39:42.533Z,1.33
2018-01-29T02:40:42.542Z,1.33
2018-01-29T02:41:42.547Z,1.40
2018-01-29T02:42:42.555Z,1.32
2018-01-29T02:43:42.562Z,1.37
2018-01-29T02:44:42.569Z,1.40
2018-01-29T02:45:42.577Z,1.37
2018-01-29T02:46:42.582Z,1.32
2018-01-29T02:47:42.591Z,1.34
2018-01-29T02:48:42.598Z,1.34
2018-01-29T02:49:42.605Z,1.34
2018-01-29T02:50:42.613Z,1.36
2018-01-29T02:51:42.619Z,1.34
2018-01-29T02:52:42.626Z,1.34
2018-01-29T02:53:42.635Z,1.33
2018-01-29T02:54:42.639Z,1.30
2018-01-29T02:55:42.649Z,1.40
2018-01-29T02:56:42.655Z,1.36
2018-01-29T02:57:42.663Z,1.36
2018-01-29T02:58:42.673Z,1.40
2018-01-29T02:59:42.677Z,1.42
2018-01-29T03:00:42.686Z,1.36
2018-01-29T03:01:42.693Z,1.40
2018-01-29T03:02:42.698Z,1.36
2018-01-29T03:03:42.706Z,1.34
2018-01-29T03:04:42.717Z,1.36
2018-01-29T03:05:42.725Z,1.37
2018-01-29T03:06:42.726Z,1.45
2018-01-29T03:07:42.734Z,1.42
2018-01-29T03:08:42.741Z,1.44
2018-01-29T03:09:42.749Z,1.41
2018-01-29T03:10:42.755Z,1.41
2018-01-29T03:11:42.763Z,1.36
2018-01-29T03:12:42.771Z,1.41
2018-01-29T03:13:42.778Z,1.37
2018-01-29T03:14:42.787Z,1.36
2018-01-29T03:15:42.791Z,1.36
2018-01-29T03:16:42.798Z,1.37
2018-01-29T03:17:42.814Z,1.37
2018-01-29T03:18:42.814Z,1.36
2018-01-29T03:19:42.826Z,1.33
2018-01-29T03:20:42.827Z,1.40
2018-01-29T03:21:42.835Z,1.40
2018-01-29T03:22:42.845Z,1.44
2018-01-29T03:23:42.848Z,1.45
2018-01-29T03:24:42.855Z,1.41
2018-01-29T03:25:42.864Z,1.42
2018-01-29T03:26:42.869Z,1.44
2018-01-29T03:27:42.877Z,1.41
2018-01-29T03:28:42.883Z,1.51
2018-01-29T03:29:42.891Z,1.45
2018-01-29T03:30:42.899Z,1.59
2018-01-29T03:31:42.905Z,1.48
2018-01-29T03:32:42.911Z,1.41
2018-01-29T03:33:42.919Z,1.54
2018-01-29T03:34:42.928Z,1.45
2018-01-29T03:35:42.934Z,1.50
2018-01-29T03:36:42.942Z,1.41
2018-01-29T03:37:42.948Z,1.45
2018-01-29T03:38:42.955Z,1.40
2018-01-29T03:39:42.962Z,1.33
2018-01-29T03:40:42.970Z,1.24
2018-01-29T03:41:42.978Z,1.24
2018-01-29T03:42:42.983Z,1.23
2018-01-29T03:43:42.990Z,1.22
2018-01-29T03:44:42.998Z,1.23
2018-01-29T03:45:43.006Z,1.22
2018-01-29T03:46:43.013Z,1.29
2018-01-29T03:47:43.019Z,1.30
2018-01-29T03:48:43.026Z,1.29
2018-01-29T03:49:43.033Z,1.33
2018-01-29T03:50:43.042Z,1.36
2018-01-29T03:51:43.046Z,1.45
2018-01-29T03:52:43.053Z,1.48
2018-01-29T03:53:43.061Z,1.37
2018-01-29T03:54:43.066Z,1.42
2018-01-29T03:55:43.074Z,1.50
2018-01-29T03:56:43.082Z,1.50
2018-01-29T03:57:43.088Z,1.47
2018-01-29T03:58:43.095Z,1.42
2018-01-29T03:59:43.102Z,1.50
2018-01-29T04:00:43.109Z,1.40
2018-01-29T04:01:43.116Z,1.48
2018-01-29T04:02:43.122Z,1.45
2018-01-29T04:03:43.130Z,1.42
2018-01-29T04:04:43.138Z,1.41
2018-01-29T04:05:43.144Z,1.34
2018-01-29T04:06:43.151Z,1.37
2018-01-29T04:07:43.158Z,1.40
2018-01-29T04:08:43.165Z,1.41
2018-01-29T04:09:43.172Z,1.36
2018-01-29T04:10:43.180Z,1.41
2018-01-29T04:11:43.186Z,1.37
2018-01-29T04:12:43.193Z,1.34
2018-01-29T04:13:43.201Z,1.37
2018-01-29T04:14:43.207Z,1.34
2018-01-29T04:15:43.215Z,1.32
2018-01-29T04:16:43.221Z,1.42
2018-01-29T04:17:43.228Z,1.45
2018-01-29T04:18:43.235Z,1.34
2018-01-29T04:19:43.242Z,1.37
2018-01-29T04:20:43.249Z,1.45
2018-01-29T04:21:43.258Z,1.37
2018-01-29T04:22:43.264Z,1.45
2018-01-29T04:23:43.270Z,1.37
2018-01-29T04:24:43.277Z,1.45
2018-01-29T04:25:43.285Z,1.41
2018-01-29T04:26:43.290Z,1.41
2018-01-29T04:27:43.298Z,1.37
2018-01-29T04:28:43.306Z,1.47
2018-01-29T04:29:43.314Z,1.37
2018-01-29T04:30:43.373Z,1.34
2018-01-29T04:31:43.326Z,1.29
2018-01-29T04:32:43.333Z,1.30
2018-01-29T04:33:43.341Z,1.24
2018-01-29T04:34:43.346Z,1.24
2018-01-29T04:35:43.356Z,1.33
2018-01-29T04:36:43.363Z,1.26
2018-01-29T04:37:43.369Z,1.23
2018-01-29T04:38:43.376Z,1.32
2018-01-29T04:39:43.383Z,1.29
2018-01-29T04:40:43.389Z,1.33
2018-01-29T04:41:43.397Z,1.24
2018-01-29T04:42:43.403Z,1.32
2018-01-29T04:43:43.411Z,1.23
2018-01-29T04:44:43.416Z,1.23
2018-01-29T04:45:43.424Z,1.22
2018-01-29T04:46:43.431Z,1.34
2018-01-29T04:47:43.441Z,1.30
2018-01-29T04:48:43.446Z,1.32
2018-01-29T04:49:43.453Z,1.33
2018-01-29T04:50:43.459Z,1.40
2018-01-29T04:51:43.466Z,1.30
2018-01-29T04:52:43.474Z,1.33
2018-01-29T04:53:43.520Z,1.36
2018-01-29T04:54:43.486Z,1.34
2018-01-29T04:55:43.495Z,1.33
2018-01-29T04:56:43.502Z,1.29
2018-01-29T04:57:43.508Z,1.36
2018-01-29T04:58:43.516Z,1.40
2018-01-29T04:59:43.521Z,1.34
2018-01-29T05:00:43.529Z,1.32
2018-01-29T05:01:43.536Z,1.34
2018-01-29T05:02:43.541Z,1.34
2018-01-29T05:03:43.550Z,1.33
2018-01-29T05:04:43.555Z,1.29
2018-01-29T05:05:43.563Z,1.27
2018-01-29T05:06:43.572Z,1.26
2018-01-29T05:07:43.576Z,1.22
2018-01-29T05:08:43.713Z,1.23
2018-01-29T05:09:43.591Z,1.24
2018-01-29T05:10:43.597Z,1.29
2018-01-29T05:11:43.605Z,1.24
2018-01-29T05:12:43.612Z,1.24
2018-01-29T05:13:43.619Z,1.29
2018-01-29T05:14:43.625Z,1.22
2018-01-29T05:15:43.632Z,1.26
2018-01-29T05:16:43.639Z,1.16
2018-01-29T05:17:43.645Z,1.26
2018-01-29T05:18:43.652Z,1.32
2018-01-29T05:19:43.663Z,1.33
2018-01-29T05:20:43.667Z,1.26
2018-01-29T05:21:43.673Z,1.23
2018-01-29T05:22:43.681Z,1.20
2018-01-29T05:23:43.687Z,1.26
2018-01-29T05:24:43.725Z,1.24
2018-01-29T05:25:43.704Z,1.22
2018-01-29T05:26:43.709Z,1.22
2018-01-29T05:27:43.715Z,1.26
2018-01-29T05:28:43.724Z,1.23
2018-01-29T05:29:43.733Z,1.22
2018-01-29T05:30:43.736Z,1.24
2018-01-29T05:31:43.743Z,1.26
2018-01-29T05:32:43.749Z,1.24
2018-01-29T05:33:43.758Z,1.30
2018-01-29T05:34:43.763Z,1.29
2018-01-29T05:35:43.772Z,1.36
2018-01-29T05:36:43.778Z,1.29
2018-01-29T05:37:43.788Z,1.30
2018-01-29T05:38:43.791Z,1.33
2018-01-29T05:39:43.799Z,1.32
2018-01-29T05:40:43.804Z,1.26
2018-01-29T05:41:43.814Z,1.22
2018-01-29T05:42:43.820Z,1.33
2018-01-29T05:43:43.826Z,1.33
2018-01-29T05:44:43.836Z,1.36
2018-01-29T05:45:43.840Z,1.37
2018-01-29T05:46:43.846Z,1.40
2018-01-29T05:47:43.855Z,1.41
2018-01-29T05:48:43.864Z,1.36
2018-01-29T05:49:43.867Z,1.34
2018-01-29T05:50:43.873Z,1.40
2018-01-29T05:51:43.917Z,1.48
2018-01-29T05:52:43.891Z,1.52
2018-01-29T05:53:43.898Z,1.50
2018-01-29T05:54:43.903Z,1.48
2018-01-29T05:55:43.924Z,1.59
2018-01-29T05:56:43.917Z,1.58
2018-01-29T05:57:43.939Z,1.59
2018-01-29T05:58:43.930Z,1.63
2018-01-29T05:59:43.938Z,1.65
2018-01-29T06:00:43.944Z,1.59
2018-01-29T06:01:44.000Z,1.59
2018-01-29T06:02:43.957Z,1.59
2018-01-29T06:03:43.973Z,1.60
2018-01-29T06:04:43.973Z,1.59
2018-01-29T06:05:43.980Z,1.58
2018-01-29T06:06:43.988Z,1.59
2018-01-29T06:07:43.994Z,1.51
2018-01-29T06:08:44.002Z,1.66
2018-01-29T06:09:44.007Z,1.59
2018-01-29T06:10:44.015Z,1.55
2018-01-29T06:11:44.022Z,1.50
2018-01-29T06:12:44.029Z,1.66
2018-01-29T06:13:44.037Z,1.50
2018-01-29T06:14:44.043Z,1.51
2018-01-29T06:15:44.049Z,1.54
2018-01-29T06:16:44.061Z,1.48
2018-01-29T06:17:44.065Z,1.60
2018-01-29T06:18:44.072Z,1.59
2018-01-29T06:19:44.078Z,1.63
2018-01-29T06:20:44.084Z,1.51
2018-01-29T06:21:44.092Z,1.54
2018-01-29T06:22:44.100Z,1.60
2018-01-29T06:23:44.114Z,1.51
2018-01-29T06:24:44.114Z,1.54
2018-01-29T06:25:44.120Z,1.48
2018-01-29T06:26:44.127Z,1.58
2018-01-29T06:27:44.139Z,1.47
2018-01-29T06:28:44.142Z,1.47
2018-01-29T06:29:44.149Z,1.54
2018-01-29T06:30:44.156Z,1.51
2018-01-29T06:31:44.163Z,1.55
2018-01-29T06:32:44.171Z,1.51
2018-01-29T06:33:44.177Z,1.48
2018-01-29T06:34:44.185Z,1.52
2018-01-29T06:35:44.191Z,1.48
2018-01-29T06:36:44.199Z,1.42
2018-01-29T06:37:44.208Z,1.45
2018-01-29T06:38:44.213Z,1.47
2018-01-29T06:39:44.220Z,1.48
2018-01-29T06:40:44.229Z,1.42
2018-01-29T06:41:44.234Z,1.48
2018-01-29T06:42:44.242Z,1.42
2018-01-29T06:43:44.249Z,1.42
2018-01-29T06:44:44.255Z,1.44
2018-01-29T06:45:44.264Z,1.44
2018-01-29T06:46:44.269Z,1.47
2018-01-29T06:47:44.275Z,1.37
2018-01-29T06:48:44.283Z,1.52
2018-01-29T06:49:44.291Z,1.45
2018-01-29T06:50:44.298Z,1.51
2018-01-29T06:51:44.302Z,1.47
2018-01-29T06:52:44.312Z,1.48
2018-01-29T06:53:44.317Z,1.47
2018-01-29T06:54:44.324Z,1.42
2018-01-29T06:55:44.336Z,1.45
2018-01-29T06:56:44.344Z,1.50
2018-01-29T06:57:44.346Z,1.51
2018-01-29T06:58:44.353Z,1.50
2018-01-29T06:59:44.359Z,1.50
2018-01-29T07:00:44.370Z,1.48
2018-01-29T07:01:44.374Z,1.52
2018-01-29T07:02:44.380Z,1.50
2018-01-29T07:03:44.387Z,1.51
2018-01-29T07:04:44.393Z,1.62
2018-01-29T07:05:44.402Z,1.51
2018-01-29T07:06:44.406Z,1.55
2018-01-29T07:07:44.414Z,1.59
2018-01-29T07:08:44.422Z,1.59
2018-01-29T07:09:44.430Z,1.66
2018-01-29T07:10:44.436Z,1.60
2018-01-29T07:11:44.443Z,1.66
2018-01-29T07:12:44.450Z,1.68
2018-01-29T07:13:44.455Z,1.63
2018-01-29T07:14:44.463Z,1.65
2018-01-29T07:15:44.469Z,1.66
2018-01-29T07:16:44.479Z,1.68
2018-01-29T07:17:44.485Z,1.66
2018-01-29T07:18:44.491Z,1.66
2018-01-29T07:19:44.499Z,1.70
2018-01-29T07:20:44.505Z,1.72
2018-01-29T07:21:44.513Z,1.80
2018-01-29T07:22:44.521Z,1.77
2018-01-29T07:23:44.526Z,1.81
2018-01-29T07:24:44.533Z,1.80
2018-01-29T07:25:44.541Z,1.84
2018-01-29T07:26:44.548Z,1.86
2018-01-29T07:27:44.554Z,1.84
2018-01-29T07:28:44.561Z,1.90
2018-01-29T07:29:44.567Z,1.81
2018-01-29T07:30:44.574Z,1.88
2018-01-29T07:31:44.582Z,1.80
2018-01-29T07:32:44.588Z,1.84
2018-01-29T07:33:44.596Z,1.81
2018-01-29T07:34:44.602Z,1.83
2018-01-29T07:35:44.610Z,1.84
2018-01-29T07:36:44.616Z,1.86
2018-01-29T07:37:44.623Z,1.87
2018-01-29T07:38:44.631Z,1.99
2018-01-29T07:39:44.639Z,1.99
2018-01-29T07:40:44.645Z,1.98
2018-01-29T07:41:44.654Z,1.99
2018-01-29T07:42:44.660Z,2.00
2018-01-29T07:43:44.668Z,1.88
2018-01-29T07:44:44.676Z,2.02
2018-01-29T07:45:44.682Z,1.88
2018-01-29T07:46:44.688Z,1.95
2018-01-29T07:47:44.699Z,1.98
2018-01-29T07:48:44.712Z,1.91
2018-01-29T07:49:44.711Z,1.93
2018-01-29T07:50:44.725Z,1.86
2018-01-29T07:51:44.724Z,1.91
2018-01-29T07:52:44.731Z,1.99
2018-01-29T07:53:44.738Z,2.03
2018-01-29T07:54:44.746Z,1.98
2018-01-29T07:55:44.753Z,2.02
2018-01-29T07:56:44.760Z,1.91
2018-01-29T07:57:44.770Z,1.99
2018-01-29T07:58:44.776Z,1.88
2018-01-29T07:59:44.784Z,1.98
2018-01-29T08:00:44.790Z,1.98
2018-01-29T08:01:44.797Z,1.88
2018-01-29T08:02:44.805Z,1.91
2018-01-29T08:03:44.812Z,1.86
2018-01-29T08:04:44.819Z,1.81
2018-01-29T08:05:44.828Z,1.98
2018-01-29T08:06:44.832Z,1.91
2018-01-29T08:07:44.843Z,1.98
2018-01-29T08:08:44.847Z,1.88
2018-01-29T08:09:44.855Z,1.95
2018-01-29T08:10:44.872Z,1.99
2018-01-29T08:11:44.871Z,2.06
2018-01-29T08:12:44.884Z,2.00
2018-01-29T08:13:44.885Z,2.03
2018-01-29T08:14:44.898Z,2.05
2018-01-29T08:15:44.899Z,2.07
2018-01-29T08:16:44.907Z,2.05
2018-01-29T08:17:44.913Z,2.05
2018-01-29T08:18:44.927Z,2.03
2018-01-29T08:19:44.928Z,2.14
2018-01-29T08:20:44.935Z,2.05
2018-01-29T08:21:44.941Z,2.06
2018-01-29T08:22:44.949Z,2.07
2018-01-29T08:23:44.957Z,2.12
2018-01-29T08:24:44.966Z,2.17
2018-01-29T08:25:44.973Z,2.06
2018-01-29T08:26:44.979Z,2.14
2018-01-29T08:27:44.987Z,2.14
2018-01-29T08:28:44.995Z,2.17
2018-01-29T08:29:45.002Z,2.24
2018-01-29T08:30:45.019Z,2.42
2018-01-29T08:31:45.016Z,2.67
2018-01-29T08:32:45.024Z,2.66
2018-01-29T08:33:45.033Z,2.82
2018-01-29T08:34:45.039Z,2.99
2018-01-29T08:35:45.112Z,3.06
2018-01-29T08:36:45.054Z,3.03
2018-01-29T08:37:45.062Z,3.21
2018-01-29T08:38:45.070Z,3.26
2018-01-29T08:39:45.079Z,3.47
2018-01-29T08:40:45.085Z,3.54
2018-01-29T08:41:45.093Z,3.61
2018-01-29T08:42:45.102Z,3.73
2018-01-29T08:43:45.111Z,3.90
2018-01-29T08:44:45.120Z,4.00
2018-01-29T08:45:45.127Z,4.09
2018-01-29T08:46:45.134Z,4.11
2018-01-29T08:47:45.144Z,4.24
2018-01-29T08:48:45.151Z,4.33
2018-01-29T08:49:45.160Z,4.29
2018-01-29T08:50:45.167Z,4.48
2018-01-29T08:51:45.176Z,4.45
2018-01-29T08:52:45.186Z,4.51
2018-01-29T08:53:45.194Z,4.63
2018-01-29T08:54:45.201Z,4.70
2018-01-29T08:55:45.213Z,4.70
2018-01-29T08:56:45.222Z,4.65
2018-01-29T08:57:45.228Z,4.80
2018-01-29T08:58:45.237Z,4.78
2018-01-29T08:59:45.246Z,4.92
2018-01-29T09:00:45.256Z,4.97
2018-01-29T09:01:45.264Z,5.10
2018-01-29T09:03:45.283Z,5.25
2018-01-29T09:04:45.291Z,5.33
2018-01-29T09:05:45.301Z,5.40
2018-01-29T09:06:45.314Z,5.48
2018-01-29T09:07:45.320Z,5.60
2018-01-29T09:08:45.330Z,5.61
2018-01-29T09:09:45.339Z,5.67
2018-01-29T09:10:45.349Z,5.74
2018-01-29T09:11:45.363Z,5.81
2018-01-29T09:12:45.369Z,5.81
2018-01-29T09:13:45.380Z,5.93
2018-01-29T09:14:45.390Z,6.00
2018-01-29T09:15:45.397Z,6.06
2018-01-29T09:16:45.407Z,6.15
2018-01-29T09:17:45.419Z,6.15
2018-01-29T09:18:45.426Z,6.30
2018-01-29T09:19:45.437Z,6.21
2018-01-29T09:20:45.448Z,6.27
2018-01-29T09:21:45.459Z,6.36
2018-01-29T09:22:45.467Z,6.36
2018-01-29T09:23:45.478Z,6.46
2018-01-29T09:24:45.488Z,6.55
2018-01-29T09:25:45.499Z,6.61
2018-01-29T09:26:45.512Z,6.62
2018-01-29T09:27:45.518Z,6.70
2018-01-29T09:28:45.532Z,6.81
2018-01-29T09:29:45.541Z,6.84
2018-01-29T09:30:45.551Z,6.95
2018-01-29T09:31:45.562Z,6.95
2018-01-29T09:32:45.574Z,7.03
2018-01-29T09:33:45.583Z,7.10
2018-01-29T09:34:45.597Z,7.15
2018-01-29T09:35:45.606Z,7.24
2018-01-29T09:36:45.617Z,7.24
2018-01-29T09:37:45.627Z,7.27
2018-01-29T09:38:45.639Z,7.23
2018-01-29T09:39:45.649Z,7.15
2018-01-29T09:40:45.661Z,7.10
2018-01-29T09:41:45.672Z,7.12
2018-01-29T09:42:45.687Z,7.23
2018-01-29T09:43:45.695Z,7.17
2018-01-29T09:44:45.709Z,7.23
2018-01-29T09:45:45.718Z,7.15
2018-01-29T09:46:45.731Z,7.21
2018-01-29T09:47:45.743Z,7.02
2018-01-29T09:48:45.752Z,7.02
2018-01-29T09:49:45.767Z,7.15
2018-01-29T09:50:45.776Z,7.25
2018-01-29T09:51:45.789Z,7.31
2018-01-29T09:52:45.800Z,7.42
2018-01-29T09:53:45.811Z,7.60
2018-01-29T09:54:45.822Z,7.75
2018-01-29T09:55:45.833Z,7.80
2018-01-29T09:56:45.846Z,7.92
2018-01-29T09:57:45.857Z,8.10
2018-01-29T09:58:45.872Z,8.18
2018-01-29T09:59:45.885Z,8.44
2018-01-29T10:00:45.893Z,8.55
2018-01-29T10:01:45.906Z,8.56
2018-01-29T10:02:45.915Z,8.80
2018-01-29T10:03:45.938Z,8.95
2018-01-29T10:04:45.940Z,9.18
2018-01-29T10:05:45.958Z,9.35
2018-01-29T10:06:45.966Z,9.50
2018-01-29T10:07:45.977Z,9.57
2018-01-29T10:08:45.989Z,9.75
2018-01-29T10:09:46.003Z,9.81
2018-01-29T10:10:46.025Z,10.05
2018-01-29T10:11:46.028Z,10.23
2018-01-29T10:12:46.042Z,10.26
2018-01-29T10:13:46.056Z,10.33
2018-01-29T10:14:46.068Z,10.32
2018-01-29T10:15:46.081Z,10.32
2018-01-29T10:16:46.094Z,10.22
2018-01-29T10:17:46.107Z,10.32
2018-01-29T10:18:46.132Z,10.48
2018-01-29T10:19:46.135Z,10.40
2018-01-29T10:20:46.147Z,10.12
2018-01-29T10:21:46.163Z,10.22
2018-01-29T10:22:46.173Z,10.34
2018-01-29T10:23:46.189Z,10.74
2018-01-29T10:24:46.201Z,10.60
2018-01-29T10:25:46.218Z,10.84
2018-01-29T10:26:46.237Z,11.03
2018-01-29T10:27:46.243Z,11.02
2018-01-29T10:28:46.269Z,11.17
2018-01-29T10:29:46.273Z,11.40
2018-01-29T10:30:46.285Z,11.58
2018-01-29T10:31:46.300Z,11.60
2018-01-29T10:32:46.316Z,11.83
2018-01-29T10:33:46.329Z,12.12
2018-01-29T10:34:46.341Z,12.35
2018-01-29T10:35:46.359Z,12.17
2018-01-29T10:36:46.372Z,12.47
2018-01-29T10:37:46.388Z,12.17
2018-01-29T10:38:46.411Z,12.10
2018-01-29T10:39:46.418Z,12.29
2018-01-29T10:40:46.430Z,12.54
2018-01-29T10:41:46.447Z,12.90
2018-01-29T10:42:46.460Z,13.12
2018-01-29T10:43:46.476Z,13.15
2018-01-29T10:44:46.492Z,13.49
2018-01-29T10:45:46.506Z,13.45
2018-01-29T10:46:46.520Z,13.07
2018-01-29T10:47:46.538Z,12.86
2018-01-29T10:48:46.552Z,12.96
2018-01-29T10:49:46.569Z,13.11
2018-01-29T10:50:46.588Z,13.10
2018-01-29T10:51:46.600Z,13.23
2018-01-29T10:52:46.616Z,13.46
2018-01-29T10:53:46.678Z,13.64
2018-01-29T10:54:46.645Z,13.87
2018-01-29T10:55:46.665Z,14.04
2018-01-29T10:56:46.679Z,14.28
2018-01-29T10:57:46.699Z,14.46
2018-01-29T10:58:46.710Z,14.33
2018-01-29T10:59:46.728Z,14.47
2018-01-29T11:00:46.767Z,14.51
2018-01-29T11:01:46.760Z,14.70
2018-01-29T11:02:46.776Z,14.84
2018-01-29T11:03:46.792Z,15.06
2018-01-29T11:04:46.815Z,15.19
2018-01-29T11:05:46.827Z,15.38
2018-01-29T11:06:46.842Z,15.17
2018-01-29T11:07:46.860Z,13.81
2018-01-29T11:08:46.877Z,12.34
2018-01-29T11:09:46.928Z,12.23
2018-01-29T11:10:46.918Z,12.67
2018-01-29T11:11:46.927Z,13.11
2018-01-29T11:12:46.946Z,13.08
2018-01-29T11:13:46.963Z,13.45
2018-01-29T11:14:46.981Z,13.01
2018-01-29T11:15:46.998Z,11.98
2018-01-29T11:16:47.015Z,12.34
2018-01-29T11:17:47.033Z,12.92
2018-01-29T11:18:47.048Z,13.39
2018-01-29T11:19:47.066Z,13.91
2018-01-29T11:20:47.084Z,14.29
2018-01-29T11:21:47.099Z,14.73
2018-01-29T11:22:47.118Z,14.69
2018-01-29T11:23:47.134Z,15.07
2018-01-29T11:24:47.154Z,15.11
2018-01-29T11:25:47.171Z,15.34
2018-01-29T11:26:47.192Z,15.07
2018-01-29T11:27:47.205Z,14.47
2018-01-29T11:28:47.222Z,13.99
2018-01-29T11:29:47.243Z,13.26
2018-01-29T11:30:47.258Z,12.97
2018-01-29T11:31:47.324Z,12.75
2018-01-29T11:32:47.297Z,12.38
2018-01-29T11:33:47.314Z,12.45
2018-01-29T11:34:47.329Z,12.62
2018-01-29T11:35:47.348Z,11.86
2018-01-29T11:36:47.365Z,11.47
2018-01-29T11:37:47.384Z,11.39
2018-01-29T11:38:47.401Z,12.02
2018-01-29T11:39:47.421Z,12.50
2018-01-29T11:40:47.437Z,13.22
2018-01-29T11:41:47.458Z,13.49
2018-01-29T11:42:47.472Z,13.92
2018-01-29T11:43:47.490Z,14.40
2018-01-29T11:44:47.507Z,13.81
2018-01-29T11:45:47.527Z,13.32
2018-01-29T11:46:47.544Z,12.62
2018-01-29T11:47:47.561Z,13.10
2018-01-29T11:48:47.578Z,13.14
2018-01-29T11:49:47.599Z,13.28
2018-01-29T11:50:47.617Z,13.03
2018-01-29T11:51:47.633Z,12.54
2018-01-29T11:52:47.652Z,12.41
2018-01-29T11:53:47.668Z,12.59
2018-01-29T11:54:47.687Z,13.07
2018-01-29T11:55:47.705Z,13.57
2018-01-29T11:56:47.723Z,13.88
2018-01-29T11:57:47.741Z,14.14
2018-01-29T11:58:47.759Z,14.02
2018-01-29T11:59:47.783Z,13.57
2018-01-29T12:00:47.795Z,12.64
2018-01-29T12:01:47.816Z,12.59
2018-01-29T12:02:47.831Z,12.20
2018-01-29T12:03:47.850Z,11.96
2018-01-29T12:04:47.874Z,11.37
2018-01-29T12:05:47.888Z,11.44
2018-01-29T12:06:47.905Z,11.96
2018-01-29T12:07:47.922Z,12.28
2018-01-29T12:08:47.948Z,12.74
2018-01-29T12:09:47.959Z,13.23
2018-01-29T12:10:47.976Z,12.83
2018-01-29T12:11:47.999Z,13.07
2018-01-29T12:12:48.013Z,13.54
2018-01-29T12:13:48.034Z,14.03
2018-01-29T12:14:48.051Z,14.47
2018-01-29T12:15:48.068Z,14.84
2018-01-29T12:16:48.086Z,15.06
2018-01-29T12:17:48.105Z,15.44
2018-01-29T12:18:48.127Z,15.67
2018-01-29T12:19:48.141Z,15.17
2018-01-29T12:20:48.161Z,15.43
2018-01-29T12:21:48.180Z,15.11
2018-01-29T12:22:48.197Z,15.14
2018-01-29T12:23:48.215Z,15.25
2018-01-29T12:24:48.234Z,15.44
2018-01-29T12:25:48.255Z,15.74
2018-01-29T12:26:48.272Z,16.00
2018-01-29T12:27:48.291Z,16.31
2018-01-29T12:28:48.313Z,16.07
2018-01-29T12:29:48.331Z,15.41
2018-01-29T12:30:48.354Z,14.91
2018-01-29T12:31:48.371Z,14.43
2018-01-29T12:32:48.391Z,14.65
2018-01-29T12:33:48.408Z,14.39
2018-01-29T12:34:48.429Z,13.77
2018-01-29T12:35:48.446Z,13.84
2018-01-29T12:36:48.467Z,14.32
2018-01-29T12:37:48.485Z,14.72
2018-01-29T12:38:48.505Z,15.11
2018-01-29T12:39:48.525Z,15.47
2018-01-29T12:40:48.542Z,15.84
2018-01-29T12:41:48.564Z,16.08
2018-01-29T12:42:48.582Z,16.25
2018-01-29T12:43:48.601Z,16.45
2018-01-29T12:44:48.622Z,16.53
2018-01-29T12:45:48.643Z,16.79
2018-01-29T12:46:48.661Z,16.98
2018-01-29T12:47:48.684Z,17.15
2018-01-29T12:48:48.701Z,17.25
2018-01-29T12:49:48.722Z,17.06
2018-01-29T12:50:48.742Z,17.12
2018-01-29T12:51:48.763Z,17.19
2018-01-29T12:52:48.783Z,16.42
2018-01-29T12:53:48.803Z,16.09
2018-01-29T12:54:48.824Z,16.04
2018-01-29T12:55:48.844Z,15.60
2018-01-29T12:56:48.865Z,15.03
2018-01-29T12:57:48.888Z,14.75
2018-01-29T12:58:48.907Z,15.06
2018-01-29T12:59:48.929Z,15.43
2018-01-29T13:00:48.950Z,15.80
2018-01-29T13:01:48.969Z,14.73
2018-01-29T13:02:48.989Z,14.61
2018-01-29T13:03:49.010Z,14.98
2018-01-29T13:04:49.031Z,15.38
2018-01-29T13:05:49.052Z,15.83
2018-01-29T13:06:49.071Z,16.21
2018-01-29T13:07:49.092Z,16.35
2018-01-29T13:08:49.114Z,16.76
2018-01-29T13:09:49.136Z,16.86
2018-01-29T13:10:49.159Z,17.04
2018-01-29T13:11:49.180Z,17.01
2018-01-29T13:12:49.198Z,16.67
2018-01-29T13:13:49.219Z,16.82